createdAt,value
2023-02-15T00:02:02.894Z,55.46
2023-02-15T00:07:04.760Z,55.97
2023-02-15T00:12:06.640Z,55.40
2023-02-15T00:17:08.441Z,56.13
2023-02-15T00:22:10.498Z,55.43
2023-02-15T00:27:12.364Z,55.38
2023-02-15T00:32:14.816Z,55.86
2023-02-15T00:37:16.645Z,55.31
2023-02-15T00:42:22.457Z,55.85
2023-02-15T00:47:26.361Z,55.60
2023-02-15T00:52:28.180Z,56.19
2023-02-15T00:57:31.457Z,56.03
2023-02-15T01:02:33.270Z,55.95
2023-02-15T01:07:37.343Z,56.13
2023-02-15T01:12:39.148Z,56.02
2023-02-15T01:17:42.500Z,55.76
2023-02-15T01:22:44.587Z,56.03
2023-02-15T01:27:46.706Z,55.73
2023-02-15T01:32:48.534Z,55.97
2023-02-15T01:37:50.345Z,56.06
2023-02-15T01:42:54.830Z,55.74
2023-02-15T01:48:03.090Z,56.32
2023-02-15T01:53:14.551Z,55.54
2023-02-15T01:58:16.812Z,56.01
2023-02-15T02:03:25.285Z,55.74
2023-02-15T02:08:27.212Z,55.57
2023-02-15T02:13:29.688Z,55.63
2023-02-15T02:18:48.775Z,56.14
2023-02-15T02:23:53.612Z,55.57
2023-02-15T02:29:13.577Z,55.89
2023-02-15T02:34:24.516Z,55.58
2023-02-15T02:39:47.718Z,55.87
2023-02-15T02:44:59.226Z,56.08
2023-02-15T02:50:04.543Z,56.12
2023-02-15T02:55:25.295Z,55.95
2023-02-15T03:00:32.025Z,55.94
2023-02-15T03:05:36.924Z,55.94
2023-02-15T03:10:41.741Z,55.87
2023-02-15T03:16:04.808Z,55.76
2023-02-15T03:21:09.369Z,55.76
2023-02-15T03:26:12.240Z,55.82
2023-02-15T03:31:17.357Z,55.78
2023-02-15T03:36:31.344Z,55.94
2023-02-15T03:41:43.092Z,56.20
2023-02-15T03:46:54.836Z,56.37
2023-02-15T03:51:58.683Z,56.76
2023-02-15T03:57:20.780Z,56.66
2023-02-15T04:02:31.165Z,56.36
2023-02-15T04:07:32.955Z,56.56
2023-02-15T04:12:34.763Z,56.29
2023-02-15T04:17:38.695Z,56.42
2023-02-15T04:22:59.218Z,56.43
2023-02-15T04:28:01.162Z,56.15
2023-02-15T04:33:02.975Z,56.29
2023-02-15T04:38:04.901Z,56.42
2023-02-15T04:43:06.750Z,56.24
2023-02-15T04:48:08.570Z,56.56
2023-02-15T04:53:10.799Z,56.03
2023-02-15T04:58:12.629Z,56.39
2023-02-15T05:03:14.624Z,56.52
2023-02-15T05:08:16.466Z,56.58
2023-02-15T05:13:18.537Z,56.35
2023-02-15T05:18:22.268Z,56.61
2023-02-15T05:23:24.260Z,56.36
2023-02-15T05:28:27.866Z,56.65
2023-02-15T05:33:29.839Z,56.53
2023-02-15T05:38:32.137Z,56.31
2023-02-15T05:43:34.382Z,56.37
2023-02-15T05:48:36.239Z,56.36
2023-02-15T05:53:40.391Z,56.26
2023-02-15T05:58:43.762Z,56.27
2023-02-15T06:03:46.840Z,56.22
2023-02-15T06:08:49.013Z,56.16
2023-02-15T06:13:50.912Z,56.59
2023-02-15T06:18:53.790Z,56.68
2023-02-15T06:23:55.724Z,56.50
2023-02-15T06:28:57.624Z,56.51
2023-02-15T06:34:02.175Z,56.29
2023-02-15T06:39:05.179Z,56.34
2023-02-15T06:44:07.091Z,56.19
2023-02-15T06:49:09.020Z,56.35
2023-02-15T06:54:10.930Z,56.48
2023-02-15T06:59:12.814Z,56.59
2023-02-15T07:04:14.613Z,57.04
2023-02-15T07:09:16.605Z,56.75
2023-02-15T07:14:18.732Z,56.50
2023-02-15T07:19:20.682Z,56.99
2023-02-15T07:24:22.613Z,57.02
2023-02-15T07:29:25.299Z,56.63
2023-02-15T07:34:27.287Z,56.59
2023-02-15T07:39:29.689Z,56.74
2023-02-15T07:44:31.894Z,56.85
2023-02-15T07:49:34.642Z,56.53
2023-02-15T07:54:37.190Z,56.24
2023-02-15T07:59:39.477Z,56.34
2023-02-15T08:04:41.435Z,56.27
2023-02-15T08:09:43.291Z,56.26
2023-02-15T08:14:45.135Z,55.98
2023-02-15T08:19:47.851Z,56.00
2023-02-15T08:24:49.655Z,55.81
2023-02-15T08:29:51.482Z,55.90
2023-02-15T08:34:53.760Z,55.40
2023-02-15T08:39:55.567Z,55.76
2023-02-15T08:44:57.357Z,55.16
2023-02-15T08:49:59.193Z,55.64
2023-02-15T08:55:01.034Z,55.33
2023-02-15T09:00:05.718Z,55.19
2023-02-15T09:05:07.788Z,54.43
2023-02-15T09:10:10.717Z,54.62
2023-02-15T09:15:12.749Z,54.50
2023-02-15T09:20:14.624Z,54.12
2023-02-15T09:25:16.624Z,54.55
2023-02-15T09:30:18.650Z,53.99
2023-02-15T09:35:20.520Z,53.84
2023-02-15T09:40:23.316Z,53.54
2023-02-15T09:45:37.769Z,53.88
2023-02-15T09:51:18.129Z,53.51
2023-02-15T09:56:53.814Z,53.18
2023-02-15T10:02:17.340Z,52.62
2023-02-15T10:07:28.212Z,52.75
2023-02-15T10:12:45.460Z,52.40
2023-02-15T10:18:02.492Z,52.51
2023-02-15T10:23:18.773Z,52.20
2023-02-15T10:28:27.821Z,51.79
2023-02-15T10:33:44.396Z,52.26
2023-02-15T10:38:52.307Z,51.62
2023-02-15T10:43:54.119Z,51.66
2023-02-15T10:49:07.426Z,50.79
2023-02-15T10:54:23.225Z,51.12
2023-02-15T10:59:53.926Z,51.28
2023-02-15T11:05:17.246Z,50.98
2023-02-15T11:10:44.366Z,50.72
2023-02-15T11:16:02.040Z,50.94
2023-02-15T11:21:04.296Z,50.57
2023-02-15T11:26:25.555Z,50.42
2023-02-15T11:31:43.023Z,49.60
2023-02-15T11:36:46.060Z,49.92
2023-02-15T11:41:55.154Z,49.63
2023-02-15T11:46:57.624Z,49.32
2023-02-15T11:52:03.156Z,48.96
2023-02-15T11:57:17.071Z,48.73
2023-02-15T12:02:22.322Z,48.55
2023-02-15T12:07:39.150Z,48.36
2023-02-15T12:12:41.411Z,47.98
2023-02-15T12:17:52.477Z,47.64
2023-02-15T12:23:04.279Z,47.55
2023-02-15T12:28:23.339Z,46.94
2023-02-15T12:33:25.129Z,46.87
2023-02-15T12:38:28.590Z,46.64
2023-02-15T12:43:36.337Z,46.60
2023-02-15T12:48:40.621Z,46.58
2023-02-15T12:53:45.009Z,46.37
2023-02-15T12:58:47.147Z,46.12
2023-02-15T13:04:04.842Z,46.32
2023-02-15T13:09:16.556Z,45.87
2023-02-15T13:14:39.043Z,45.77
2023-02-15T13:19:53.631Z,45.40
2023-02-15T13:25:02.681Z,45.33
2023-02-15T13:30:19.703Z,45.27
2023-02-15T13:35:22.473Z,44.62
2023-02-15T13:40:32.146Z,42.85
2023-02-15T13:45:40.016Z,40.45
2023-02-15T13:51:07.224Z,37.08
2023-02-15T13:56:51.295Z,34.62
2023-02-15T14:01:55.860Z,34.69
2023-02-15T14:07:06.326Z,33.32
2023-02-15T14:12:11.627Z,34.09
2023-02-15T14:17:16.352Z,33.06
2023-02-15T14:22:42.257Z,30.78
2023-02-15T14:27:59.802Z,31.63
2023-02-15T14:33:25.518Z,30.26
2023-02-15T14:38:42.438Z,28.93
2023-02-15T14:44:22.924Z,29.51
2023-02-15T14:49:28.746Z,33.16
2023-02-15T14:54:31.406Z,35.27
2023-02-15T14:59:45.213Z,36.29
2023-02-15T15:05:09.801Z,37.10
2023-02-15T15:10:17.581Z,37.53
2023-02-15T15:15:28.576Z,38.12
2023-02-15T15:20:42.920Z,38.47
2023-02-15T15:25:49.017Z,39.06
2023-02-15T15:30:51.346Z,39.21
2023-02-15T15:36:26.898Z,39.36
2023-02-15T15:42:06.916Z,39.93
2023-02-15T15:47:31.056Z,40.08
2023-02-15T15:52:39.681Z,40.50
2023-02-15T15:57:45.326Z,40.60
2023-02-15T16:02:54.983Z,41.09
2023-02-15T16:07:56.825Z,41.50
2023-02-15T16:12:59.666Z,41.72
2023-02-15T16:18:02.077Z,41.87
2023-02-15T16:23:15.779Z,41.81
2023-02-15T16:28:19.681Z,42.33
2023-02-15T16:33:21.954Z,42.02
2023-02-15T16:38:42.668Z,42.05
2023-02-15T16:43:48.188Z,42.63
2023-02-15T16:48:53.820Z,42.76
2023-02-15T16:53:57.708Z,42.87
2023-02-15T16:59:00.561Z,42.89
2023-02-15T17:04:15.076Z,43.17
2023-02-15T17:09:21.819Z,43.39
2023-02-15T17:14:32.212Z,43.55
2023-02-15T17:19:47.264Z,43.41
2023-02-15T17:24:52.345Z,43.45
2023-02-15T17:30:15.505Z,43.45
2023-02-15T17:35:25.836Z,43.40
2023-02-15T17:40:33.029Z,44.04
2023-02-15T17:45:45.305Z,43.82
2023-02-15T17:50:47.355Z,44.02
2023-02-15T17:55:49.210Z,43.87
2023-02-15T18:01:17.286Z,43.94
2023-02-15T18:06:37.697Z,44.15
2023-02-15T18:11:39.787Z,44.19
2023-02-15T18:16:44.583Z,44.39
2023-02-15T18:21:47.187Z,44.90
2023-02-15T18:26:49.155Z,44.43
2023-02-15T18:31:55.579Z,44.80
2023-02-15T18:36:59.434Z,44.79
2023-02-15T18:42:01.412Z,44.73
2023-02-15T18:47:03.212Z,44.78
2023-02-15T18:52:05.677Z,44.79
2023-02-15T18:57:13.935Z,45.30
2023-02-15T19:02:18.833Z,45.45
2023-02-15T19:07:27.227Z,45.25
2023-02-15T19:12:30.680Z,45.02
2023-02-15T19:17:33.590Z,45.09
2023-02-15T19:22:35.823Z,45.62
2023-02-15T19:27:39.142Z,45.67
2023-02-15T19:32:41.250Z,46.08
2023-02-15T19:37:46.209Z,45.90
2023-02-15T19:42:48.438Z,45.78
2023-02-15T19:47:52.579Z,46.41
2023-02-15T19:52:55.956Z,46.15
2023-02-15T19:57:59.468Z,46.22
2023-02-15T20:03:02.022Z,46.67
2023-02-15T20:08:08.687Z,46.87
2023-02-15T20:13:20.104Z,46.79
2023-02-15T20:18:22.867Z,46.79
2023-02-15T20:23:31.844Z,46.49
2023-02-15T20:28:34.336Z,47.00
2023-02-15T20:33:36.488Z,47.10
2023-02-15T20:38:39.046Z,47.23
2023-02-15T20:43:41.229Z,47.57
2023-02-15T20:48:43.515Z,47.29
2023-02-15T20:53:46.571Z,47.20
2023-02-15T20:58:49.162Z,46.90
2023-02-15T21:03:51.442Z,47.47
2023-02-15T21:08:53.569Z,47.18
2023-02-15T21:13:55.475Z,47.33
2023-02-15T21:18:57.355Z,47.50
2023-02-15T21:23:59.318Z,47.58
2023-02-15T21:29:01.885Z,47.48
2023-02-15T21:34:03.769Z,47.38
2023-02-15T21:39:06.807Z,47.53
2023-02-15T21:44:36.119Z,47.82
2023-02-15T21:49:38.972Z,47.08
2023-02-15T21:54:41.332Z,47.80
2023-02-15T21:59:43.969Z,47.64
2023-02-15T22:04:46.037Z,47.97
2023-02-15T22:09:48.044Z,47.62
2023-02-15T22:14:53.636Z,48.02
2023-02-15T22:19:56.746Z,48.00
2023-02-15T22:24:58.644Z,48.14
2023-02-15T22:30:00.655Z,48.00
2023-02-15T22:35:02.646Z,47.83
2023-02-15T22:40:05.798Z,47.59
2023-02-15T22:45:15.437Z,48.02
2023-02-15T22:50:30.186Z,47.95
2023-02-15T22:55:36.663Z,47.79
2023-02-15T23:00:40.369Z,48.26
2023-02-15T23:05:42.877Z,48.50
2023-02-15T23:10:49.290Z,48.15
2023-02-15T23:15:55.021Z,48.09
2023-02-15T23:21:15.692Z,48.17
2023-02-15T23:26:22.084Z,48.36
2023-02-15T23:31:35.818Z,48.20
2023-02-15T23:36:39.808Z,48.67
2023-02-15T23:41:41.723Z,48.05
2023-02-15T23:46:46.692Z,47.99
2023-02-15T23:51:54.066Z,48.30
2023-02-15T23:57:00.584Z,49.04
